Time;durP1;ratioP1;P1;durP2;ratioP2;P2;SDS_P1;SDS_P2;PMS_P1;PMS_P2;Temp;Humidity;BMP_temperature;BMP_pressure;BME280_temperature;BME280_humidity;BME280_pressure;Samples;Min_cycle;Max_cycle;Signal;HPM_P1;HPM_P2
2022/08/10 00:00:58;;;;;;;5.00;3.20;;;;;;;15.22;65.14;99602.58;220184;1277;22557;-74
2022/08/10 00:07:06;;;;;;;;;;;;;;;;;;;;;
2022/08/10 00:13:25;;;;;;;6.70;3.30;;;;;;;15.17;65.49;99601.05;220077;1277;22560;-74
2022/08/10 00:18:58;;;;;;;9.80;4.20;;;;;;;15.11;65.58;99597.27;220279;1277;22703;-73
2022/08/10 00:25:40;;;;;;;10.10;4.40;;;;;;;15.04;65.81;99597.94;220200;1277;25264;-73
2022/08/10 00:30:50;;;;;;;5.20;3.50;;;;;;;15.00;66.17;99595.90;220072;1277;24411;-73
2022/08/10 00:37:07;;;;;;;7.50;4.10;;;;;;;14.94;66.30;99595.48;219972;1275;23796;-74
2022/08/10 00:43:21;;;;;;;;;;;;;;;;;;;;;
2022/08/10 00:50:19;;;;;;;;;;;;;;;;;;;;;
2022/08/10 00:57:13;;;;;;;9.80;5.60;;;;;;;14.63;67.23;99593.67;219939;1277;22538;-73
2022/08/10 01:02:58;;;;;;;;;;;;;;;;;;;;;
2022/08/10 01:09:39;;;;;;;;;;;;;;;;;;;;;
2022/08/10 01:16:38;;;;;;;10.20;5.50;;;;;;;14.46;67.80;99583.30;219611;1281;22568;-74
2022/08/10 01:23:38;;;;;;;11.40;6.10;;;;;;;14.40;68.09;99584.42;218165;1286;22575;-75
2022/08/10 01:29:35;;;;;;;10.30;5.80;;;;;;;14.31;68.23;99585.36;218314;1285;22581;-74
2022/08/10 01:35:31;;;;;;;9.50;6.30;;;;;;;14.25;68.60;99587.72;220063;1277;26425;-73
2022/08/10 01:41:53;;;;;;;12.20;7.40;;;;;;;14.16;68.75;99586.29;216194;1277;5448949;-73
2022/08/10 01:55:55;;;;;;;;;;;;;;;;;;;;;
2022/08/10 02:02:28;;;;;;;16.70;8.80;;;;;;;13.98;69.61;99578.23;220066;1277;25249;-74
2022/08/10 02:09:16;;;;;;;;;;;;;;;;;;;;;
2022/08/10 02:22:19;;;;;;;12.20;8.20;;;;;;;13.93;70.16;99583.54;219940;1277;23266;-74
2022/08/10 02:42:40;;;;;;;12.30;7.80;;;;;;;13.79;70.62;99600.86;220131;1277;22595;-72
2022/08/10 02:49:05;;;;;;;15.40;7.30;;;;;;;13.71;70.84;99605.64;220124;1277;24286;-73
2022/08/10 02:55:08;;;;;;;10.90;7.20;;;;;;;13.65;71.06;99607.12;220024;1277;22762;-73
2022/08/10 03:00:33;;;;;;;11.20;6.70;;;;;;;13.60;71.12;99608.57;220224;1276;24434;-72
2022/08/10 03:12:48;;;;;;;14.80;8.20;;;;;;;13.47;71.67;99609.91;220101;1277;22856;-74
2022/08/10 03:19:16;;;;;;;8.70;6.50;;;;;;;13.41;71.82;99609.98;220311;1277;23990;-73
2022/08/10 03:25:00;;;;;;;10.50;6.70;;;;;;;13.35;71.95;99614.02;219859;1277;22568;-74
2022/08/10 03:36:44;;;;;;;17.80;7.60;;;;;;;13.25;72.27;99613.52;220133;1277;22641;-74
2022/08/10 03:42:59;;;;;;;13.20;7.20;;;;;;;13.22;72.37;99621.56;220187;1277;22542;-72
2022/08/10 03:49:43;;;;;;;;;;;;;;;;;;;;;
2022/08/10 03:56:10;;;;;;;11.10;6.70;;;;;;;13.36;73.11;99623.86;219928;1277;25325;-73
2022/08/10 04:02:26;;;;;;;10.30;6.90;;;;;;;13.48;73.06;99626.11;220375;1277;22570;-73
2022/08/10 04:09:12;;;;;;;9.40;6.90;;;;;;;13.54;72.89;99632.45;220313;1277;22549;-73
2022/08/10 04:15:43;;;;;;;8.10;5.60;;;;;;;13.59;72.95;99638.05;219896;1277;24474;-74
2022/08/10 04:22:03;;;;;;;14.20;6.10;;;;;;;13.67;72.89;99635.91;220196;1276;23971;-74
2022/08/10 04:28:11;;;;;;;8.90;5.80;;;;;;;13.74;72.95;99642.12;220211;1277;22797;-75
2022/08/10 04:34:06;;;;;;;11.10;6.50;;;;;;;13.83;73.02;99642.50;220051;1276;22618;-74
2022/08/10 04:40:03;;;;;;;7.40;5.50;;;;;;;13.95;73.17;99639.91;220347;1277;22544;-74
2022/08/10 04:46:15;;;;;;;10.10;6.00;;;;;;;14.11;73.38;99643.27;219622;1279;22577;-74
2022/08/10 04:53:40;;;;;;;7.40;5.80;;;;;;;14.34;73.40;99646.88;219592;1279;22644;-73
2022/08/10 04:59:25;;;;;;;;;;;;;;;14.59;73.58;99650.03;219573;1280;25303;-73
2022/08/10 05:05:29;;;;;;;7.30;5.00;;;;;;;14.80;73.49;99653.38;219453;1279;22564;-73
2022/08/10 05:12:04;;;;;;;;;;;;;;;;;;;;;
2022/08/10 05:19:01;;;;;;;8.20;5.00;;;;;;;15.36;73.49;99659.49;219924;1277;22550;-74
2022/08/10 05:25:05;;;;;;;8.60;4.70;;;;;;;15.61;73.11;99666.20;220296;1277;22536;-72
2022/08/10 05:30:32;;;;;;;9.10;5.30;;;;;;;15.82;72.66;99671.31;220280;1277;22558;-74
2022/08/10 05:37:08;;;;;;;9.30;5.70;;;;;;;16.00;72.07;99673.22;220310;1277;24227;-72
2022/08/10 05:43:29;;;;;;;6.70;4.80;;;;;;;16.18;71.47;99677.55;220515;1274;22545;-74
2022/08/10 05:49:15;;;;;;;8.10;4.20;;;;;;;16.34;70.99;99677.90;220556;1274;22580;-74
2022/08/10 05:54:54;;;;;;;12.30;6.60;;;;;;;16.50;70.69;99674.25;220523;1274;22678;-74
2022/08/10 06:00:24;;;;;;;10.60;5.40;;;;;;;16.68;70.51;99674.10;220650;1274;22589;-75
2022/08/10 06:07:26;;;;;;;;;;;;;;;;;;;;;
2022/08/10 06:25:53;;;;;;;7.90;5.00;;;;;;;17.76;68.30;99695.42;219964;1276;22590;-73
2022/08/10 06:32:42;;;;;;;5.50;4.10;;;;;;;18.03;67.72;99698.81;219414;1281;22625;-74
2022/08/10 06:46:07;;;;;;;;;;;;;;;;;;;;;
2022/08/10 06:52:03;;;;;;;6.80;5.30;;;;;;;18.65;66.27;99698.20;219305;1279;22489;-74
2022/08/10 06:57:48;;;;;;;9.70;4.90;;;;;;;18.88;66.02;99698.97;219484;1280;24230;-74
2022/08/10 07:03:17;;;;;;;8.90;4.80;;;;;;;19.12;65.56;99698.09;220223;1276;24384;-74
2022/08/10 07:09:22;;;;;;;7.40;4.50;;;;;;;19.33;65.00;99696.65;219241;1281;22564;-73
2022/08/10 07:15:19;;;;;;;7.30;4.00;;;;;;;19.55;64.47;99696.36;219065;1284;22676;-74
2022/08/10 07:20:45;;;;;;;7.90;4.00;;;;;;;19.76;64.21;99696.30;219953;1281;24217;-73
2022/08/10 07:26:00;;;;;;;8.50;4.00;;;;;;;19.97;63.27;99697.91;219429;1282;26401;-74
2022/08/10 07:31:40;;;;;;;8.30;3.80;;;;;;;20.14;62.35;99702.77;219369;1281;22982;-74
2022/08/10 07:37:09;;;;;;;9.10;4.20;;;;;;;20.34;61.18;99702.60;219110;1277;24243;-74
2022/08/10 07:42:36;;;;;;;5.20;4.00;;;;;;;20.58;60.74;99700.76;219779;1277;25128;-75
2022/08/10 07:53:51;;;;;;;10.50;4.70;;;;;;;20.97;59.41;99698.35;220144;1276;22891;-73
2022/08/10 07:59:23;;;;;;;5.80;3.60;;;;;;;21.20;58.48;99697.33;220391;1274;22629;-73
2022/08/10 08:04:53;;;;;;;8.10;3.90;;;;;;;21.38;57.68;99687.34;220299;1274;24221;-74
2022/08/10 08:10:58;;;;;;;6.90;3.60;;;;;;;21.67;57.26;99689.33;220500;1274;22538;-75
2022/08/10 08:23:03;;;;;;;7.10;2.70;;;;;;;22.11;54.89;99685.77;220072;1277;22541;-75
2022/08/10 08:28:48;;;;;;;;;;;;;;;;;;;;;
2022/08/10 08:35:13;;;;;;;3.10;2.60;;;;;;;22.63;53.11;99675.30;219345;1281;24326;-74
2022/08/10 08:46:32;;;;;;;2.90;2.40;;;;;;;23.17;51.43;99672.70;219716;1279;24237;-72
2022/08/10 08:52:16;;;;;;;3.30;2.50;;;;;;;23.42;50.84;99673.79;219312;1276;1002280;-71
2022/08/10 08:57:34;;;;;;;5.90;2.90;;;;;;;23.62;49.93;99678.02;220219;1277;22669;-73
2022/08/10 09:03:13;;;;;;;6.30;2.70;;;;;;;23.76;48.59;99684.52;220577;1274;22481;-72
2022/08/10 09:09:05;;;;;;;4.80;2.40;;;;;;;23.83;48.12;99679.30;220455;1274;22609;-71
2022/08/10 09:14:50;;;;;;;3.60;2.50;;;;;;;24.06;47.98;99680.77;220465;1275;22632;-72
2022/08/10 09:20:51;;;;;;;4.50;2.70;;;;;;;24.28;46.49;99680.84;220554;1274;25541;-72
2022/08/10 09:26:15;;;;;;;3.90;2.80;;;;;;;24.16;46.19;99686.85;220307;1274;22632;-72
2022/08/10 09:31:58;;;;;;;3.00;2.50;;;;;;;23.81;46.06;99681.83;220015;1274;24220;-72
2022/08/10 09:38:14;;;;;;;4.00;2.70;;;;;;;23.59;46.49;99680.21;220086;1277;22726;-75
2022/08/10 09:43:42;;;;;;;3.10;2.50;;;;;;;23.65;46.23;99673.78;219082;1277;23426;-75
2022/08/10 09:49:57;;;;;;;4.20;3.00;;;;;;;24.05;46.26;99668.39;219717;1280;22572;-75
2022/08/10 09:56:51;;;;;;;3.60;2.60;;;;;;;24.59;45.22;99667.64;219590;1280;24376;-75
2022/08/10 10:02:42;;;;;;;3.20;2.20;;;;;;;24.95;43.98;99661.29;219896;1280;22545;-75
2022/08/10 10:08:34;;;;;;;3.00;2.80;;;;;;;24.99;43.75;99658.52;219701;1280;22565;-76
2022/08/10 10:15:19;;;;;;;4.50;2.40;;;;;;;25.08;43.66;99652.05;219566;1279;23167;-75
2022/08/10 10:20:59;;;;;;;4.50;2.80;;;;;;;25.36;43.12;99646.26;219439;1280;22795;-75
2022/08/10 10:26:57;;;;;;;2.50;2.20;;;;;;;25.63;42.74;99640.57;219119;1284;24328;-75
2022/08/10 10:32:43;;;;;;;4.20;3.10;;;;;;;25.57;42.25;99634.91;218566;1284;22722;-74
2022/08/10 10:38:31;;;;;;;3.70;2.80;;;;;;;25.31;42.10;99635.51;218381;1285;22726;-74
2022/08/10 10:43:54;;;;;;;3.40;2.30;;;;;;;24.98;42.37;99631.73;217631;1288;22551;-75
2022/08/10 10:49:39;;;;;;;2.90;2.50;;;;;;;24.53;42.30;99625.96;218033;1287;25384;-75
2022/08/10 10:55:29;;;;;;;4.70;3.00;;;;;;;24.40;42.80;99620.40;217923;1287;25496;-74
2022/08/10 11:01:22;;;;;;;3.20;2.50;;;;;;;24.33;42.69;99630.81;218540;1285;25610;-74
2022/08/10 11:07:09;;;;;;;3.70;2.40;;;;;;;24.34;43.38;99617.14;218297;1281;22695;-74
2022/08/10 11:13:02;;;;;;;5.20;2.70;;;;;;;24.67;42.65;99612.94;219558;1277;22681;-73
2022/08/10 11:19:30;;;;;;;2.70;2.50;;;;;;;24.87;42.62;99610.80;219974;1277;22541;-73
2022/08/10 11:25:35;;;;;;;2.20;2.00;;;;;;;25.15;42.33;99609.16;218179;1287;25341;-73
2022/08/10 11:31:05;;;;;;;5.10;2.60;;;;;;;25.31;42.09;99601.27;219279;1283;22705;-75
2022/08/10 11:36:40;;;;;;;2.50;2.30;;;;;;;25.53;42.40;99595.59;219137;1283;25360;-74
2022/08/10 11:41:43;;;;;;;2.50;2.20;;;;;;;25.73;41.41;99595.02;219585;1280;22603;-74
2022/08/10 11:47:34;;;;;;;3.50;2.40;;;;;;;25.83;41.22;99592.55;219587;1277;22540;-73
2022/08/10 11:53:21;;;;;;;2.40;2.20;;;;;;;25.96;40.55;99594.92;219677;1277;22569;-73
2022/08/10 12:04:15;;;;;;;2.70;2.50;;;;;;;26.35;39.88;99589.61;220214;1275;25408;-74
2022/08/10 12:09:27;;;;;;;2.70;2.50;;;;;;;26.60;39.10;99588.61;220180;1274;23813;-74
2022/08/10 12:15:02;;;;;;;2.30;2.10;;;;;;;26.83;38.97;99581.66;220338;1274;24231;-74
2022/08/10 12:20:15;;;;;;;4.10;2.40;;;;;;;26.83;38.94;99580.86;220237;1277;22553;-74
2022/08/10 12:26:14;;;;;;;4.50;1.90;;;;;;;26.43;39.21;99576.83;220102;1276;24629;-73
2022/08/10 12:31:20;;;;;;;4.10;2.50;;;;;;;25.97;39.46;99571.50;219733;1274;25710;-74
2022/08/10 12:36:39;;;;;;;2.40;2.30;;;;;;;25.94;39.67;99564.25;220270;1274;25261;-73
2022/08/10 12:42:10;;;;;;;2.90;2.40;;;;;;;26.01;39.63;99559.16;219986;1277;22532;-76
2022/08/10 12:48:10;;;;;;;2.60;2.40;;;;;;;25.76;39.73;99558.20;218786;1281;24276;-74
2022/08/10 12:53:24;;;;;;;2.70;2.50;;;;;;;25.62;40.28;99555.12;219521;1281;25003;-74
2022/08/10 12:58:44;;;;;;;2.80;2.50;;;;;;;25.75;40.75;99547.76;219707;1281;22555;-74
2022/08/10 13:04:14;;;;;;;2.50;2.30;;;;;;;25.90;39.92;99541.29;219298;1282;25451;-73
2022/08/10 13:09:32;;;;;;;2.30;2.10;;;;;;;26.04;39.38;99530.35;219906;1279;25374;-72
2022/08/10 13:14:51;;;;;;;2.80;2.50;;;;;;;26.32;39.14;99520.30;219974;1277;22562;-73
2022/08/10 13:19:56;;;;;;;3.20;2.40;;;;;;;26.61;38.84;99520.18;220016;1276;22549;-74
2022/08/10 13:25:23;;;;;;;3.20;2.70;;;;;;;26.72;38.46;99518.17;219739;1277;25236;-73
2022/08/10 13:30:38;;;;;;;7.30;3.40;;;;;;;26.49;38.24;99519.05;219954;1276;23858;-75
2022/08/10 13:35:47;;;;;;;;;;;;;;;26.14;38.75;99515.87;219886;1276;24208;-74
2022/08/10 13:41:16;;;;;;;2.80;2.40;;;;;;;25.81;38.86;99513.65;219092;1276;1360704;-74
2022/08/10 13:47:08;;;;;;;2.60;2.20;;;;;;;25.63;38.98;99507.09;219842;1279;24234;-73
2022/08/10 13:52:32;;;;;;;2.70;2.50;;;;;;;25.80;38.45;99505.80;220288;1277;22619;-74
2022/08/10 13:58:02;;;;;;;2.70;2.40;;;;;;;26.06;38.41;99495.23;220259;1276;22572;-74
2022/08/10 14:03:18;;;;;;;5.70;2.20;;;;;;;26.41;37.94;99493.39;220141;1277;22714;-74
2022/08/10 14:08:28;;;;;;;2.50;2.30;;;;;;;26.49;37.81;99489.70;219960;1276;23202;-74
2022/08/10 14:13:34;;;;;;;2.90;2.40;;;;;;;26.30;37.75;99484.18;219936;1276;25329;-73
2022/08/10 14:18:43;;;;;;;3.30;2.60;;;;;;;25.91;37.77;99483.13;219717;1276;25574;-73
2022/08/10 14:23:48;;;;;;;3.00;2.40;;;;;;;25.57;38.00;99485.15;219173;1276;1002763;-73
2022/08/10 14:29:05;;;;;;;4.10;2.40;;;;;;;25.39;38.20;99479.80;219039;1276;1002171;-73
2022/08/10 14:34:38;;;;;;;4.10;2.80;;;;;;;25.44;38.43;99481.60;219407;1280;25461;-73
2022/08/10 14:40:03;;;;;;;4.30;2.50;;;;;;;25.52;37.21;99480.38;219741;1280;22545;-73
2022/08/10 14:45:26;;;;;;;3.00;2.80;;;;;;;25.58;37.00;99475.59;219508;1280;22579;-73
2022/08/10 14:50:31;;;;;;;3.80;2.70;;;;;;;25.70;36.85;99470.50;219530;1280;22796;-73
2022/08/10 14:56:11;;;;;;;5.10;2.50;;;;;;;25.93;36.82;99463.61;219363;1277;22678;-71
2022/08/10 15:01:21;;;;;;;2.50;2.30;;;;;;;25.90;36.51;99460.91;219853;1276;22623;-73
2022/08/10 15:06:27;;;;;;;2.50;2.40;;;;;;;25.79;36.58;99465.41;219633;1276;22709;-73
2022/08/10 15:11:33;;;;;;;2.90;2.30;;;;;;;25.55;36.53;99461.45;219912;1276;25359;-75
2022/08/10 15:16:58;;;;;;;5.30;2.70;;;;;;;25.27;36.93;99458.72;219643;1276;22545;-75
2022/08/10 15:22:05;;;;;;;3.00;2.70;;;;;;;25.12;37.27;99452.31;219814;1277;26404;-73
2022/08/10 15:27:43;;;;;;;4.00;2.70;;;;;;;25.12;37.81;99455.38;219578;1276;22548;-74
2022/08/10 15:38:58;;;;;;;3.00;2.30;;;;;;;25.25;37.65;99449.20;219687;1277;22585;-75
2022/08/10 15:44:05;;;;;;;2.50;2.30;;;;;;;25.37;36.84;99452.77;218322;1277;1002615;-75
2022/08/10 15:49:16;;;;;;;2.70;2.40;;;;;;;25.37;35.74;99454.48;219630;1276;22590;-74
2022/08/10 15:54:47;;;;;;;2.90;2.70;;;;;;;25.35;35.55;99452.73;219667;1276;24236;-73
2022/08/10 16:00:18;;;;;;;2.60;2.40;;;;;;;25.34;35.68;99446.91;220066;1276;25265;-73
2022/08/10 16:06:01;;;;;;;3.10;2.00;;;;;;;25.32;35.86;99448.92;219391;1276;1002455;-74
2022/08/10 16:11:21;;;;;;;2.10;1.90;;;;;;;25.20;35.47;99449.20;211861;1277;1003895;-74
2022/08/10 16:16:33;;;;;;;2.50;1.70;;;;;;;25.14;35.57;99450.63;219354;1277;1002589;-75
2022/08/10 16:21:53;;;;;;;3.50;2.20;;;;;;;25.11;36.04;99446.66;220177;1277;23846;-73
2022/08/10 16:27:24;;;;;;;3.00;2.10;;;;;;;25.02;36.50;99442.70;220146;1277;22758;-73
2022/08/10 16:33:13;;;;;;;2.80;2.00;;;;;;;24.97;36.68;99443.96;220043;1276;22725;-73
2022/08/10 16:38:50;;;;;;;2.70;2.10;;;;;;;24.87;36.87;99446.54;219283;1281;22560;-73
2022/08/10 16:44:32;;;;;;;6.10;2.40;;;;;;;24.64;36.64;99447.60;218841;1284;24222;-75
2022/08/10 16:49:48;;;;;;;2.50;2.30;;;;;;;24.47;36.69;99437.29;218194;1284;1003835;-73
2022/08/10 16:55:36;;;;;;;2.80;1.70;;;;;;;24.31;36.93;99442.35;218872;1284;24278;-74
2022/08/10 17:01:22;;;;;;;2.30;2.00;;;;;;;24.19;37.15;99442.67;218766;1285;22629;-73
2022/08/10 17:07:15;;;;;;;;;;;;;;;24.03;37.44;99448.41;218661;1280;24256;-72
2022/08/10 17:12:46;;;;;;;5.30;2.00;;;;;;;23.90;37.31;99449.11;219225;1277;22623;-75
2022/08/10 17:18:37;;;;;;;1.40;1.30;;;;;;;23.74;37.61;99448.84;219768;1277;23300;-74
2022/08/10 17:29:45;;;;;;;3.50;1.70;;;;;;;23.35;38.33;99451.27;219994;1276;22964;-75
2022/08/10 17:35:58;;;;;;;3.30;1.70;;;;;;;23.14;38.68;99455.46;219927;1276;23335;-74
2022/08/10 17:41:22;;;;;;;3.00;1.50;;;;;;;22.89;39.21;99457.32;219508;1277;22607;-72
2022/08/10 17:47:03;;;;;;;5.00;1.70;;;;;;;22.68;39.53;99456.48;219798;1277;22541;-73
2022/08/10 17:52:59;;;;;;;3.80;1.60;;;;;;;22.44;40.20;99457.00;219892;1276;22564;-76
2022/08/10 17:58:17;;;;;;;3.10;1.70;;;;;;;22.18;40.55;99456.93;219925;1276;22584;-72
2022/08/10 18:03:50;;;;;;;1.90;1.40;;;;;;;21.94;40.96;99455.52;219703;1277;25264;-74
2022/08/10 18:09:39;;;;;;;2.10;1.30;;;;;;;21.72;41.49;99456.86;219951;1277;22574;-73
2022/08/10 18:15:44;;;;;;;1.90;1.40;;;;;;;21.45;42.02;99464.02;219984;1276;22563;-75
2022/08/10 18:21:22;;;;;;;3.50;1.50;;;;;;;21.22;42.64;99467.45;219973;1276;22791;-74
2022/08/10 18:27:09;;;;;;;9.20;1.70;;;;;;;20.97;42.85;99469.10;219875;1276;22593;-72
2022/08/10 18:32:40;;;;;;;4.20;1.40;;;;;;;20.71;43.33;99473.88;219849;1276;23072;-73
2022/08/10 18:37:54;;;;;;;2.30;1.60;;;;;;;20.50;43.69;99480.39;219641;1277;22667;-75
2022/08/10 18:43:20;;;;;;;2.50;1.30;;;;;;;20.33;44.03;99487.13;219657;1277;24298;-73
2022/08/10 18:49:08;;;;;;;3.70;1.30;;;;;;;20.16;44.29;99490.69;219500;1278;24237;-76
2022/08/10 18:54:23;;;;;;;5.10;1.40;;;;;;;20.05;44.57;99492.01;219873;1277;22543;-75
2022/08/10 19:00:11;;;;;;;3.80;1.60;;;;;;;19.95;44.77;99492.34;219608;1277;25385;-73
2022/08/10 19:12:06;;;;;;;2.50;1.30;;;;;;;19.77;45.09;99490.51;219856;1276;22536;-73
2022/08/10 19:17:50;;;;;;;6.80;1.50;;;;;;;19.62;45.23;99492.66;220025;1277;25299;-74
2022/08/10 19:23:35;;;;;;;;;;;;;;;;;;;;;
2022/08/10 19:29:03;;;;;;;3.60;1.60;;;;;;;19.30;45.73;99498.28;219877;1277;24331;-77
2022/08/10 19:34:42;;;;;;;2.70;1.50;;;;;;;19.11;46.13;99495.63;219908;1277;22699;-73
2022/08/10 19:40:34;;;;;;;2.50;1.50;;;;;;;18.97;46.52;99502.28;219984;1277;23002;-74
2022/08/10 19:45:55;;;;;;;6.70;1.50;;;;;;;18.90;46.75;99503.46;219680;1277;22750;-74
2022/08/10 19:51:18;;;;;;;3.40;1.90;;;;;;;18.81;47.01;99500.45;219719;1277;22543;-73
2022/08/10 19:56:31;;;;;;;4.00;2.10;;;;;;;18.74;47.31;99497.09;219822;1277;25373;-73
2022/08/10 20:01:36;;;;;;;4.60;1.60;;;;;;;18.71;47.38;99494.83;219745;1278;22566;-74
2022/08/10 20:07:29;;;;;;;5.80;1.90;;;;;;;18.62;47.75;99494.09;219312;1281;23086;-73
2022/08/10 20:19:50;;;;;;;3.90;1.80;;;;;;;18.54;48.32;99492.91;219792;1278;22573;-73
2022/08/10 20:32:30;;;;;;;3.20;1.90;;;;;;;18.29;48.51;99489.10;219997;1277;22722;-72
2022/08/10 20:38:10;;;;;;;5.80;2.00;;;;;;;18.11;48.89;99492.27;220073;1277;25469;-73
2022/08/10 20:44:12;;;;;;;;;;;;;;;;;;;;;
2022/08/10 20:50:43;;;;;;;5.10;1.90;;;;;;;17.79;49.57;99491.39;219943;1277;24310;-74
2022/08/10 20:56:24;;;;;;;6.20;2.00;;;;;;;17.68;50.00;99494.98;219723;1278;22617;-73
2022/08/10 21:02:29;;;;;;;8.20;2.60;;;;;;;17.54;50.44;99494.91;219804;1277;22671;-73
2022/08/10 21:08:24;;;;;;;6.90;3.10;;;;;;;17.45;50.74;99492.73;219765;1277;24271;-74
2022/08/10 21:14:43;;;;;;;5.10;1.90;;;;;;;17.32;51.12;99492.74;219531;1279;22968;-74
2022/08/10 21:20:33;;;;;;;3.30;2.20;;;;;;;17.21;51.46;99499.49;219268;1278;24918;-74
2022/08/10 22:53:06;;;;;;;5.10;1.80;;;;;;;15.36;56.16;99458.81;218894;1282;24379;-73
2022/08/10 23:06:23;;;;;;;2.30;1.40;;;;;;;15.16;57.17;99454.10;218099;1282;22551;-74
2022/08/10 23:12:59;;;;;;;3.10;1.80;;;;;;;14.99;57.54;99450.60;218938;1282;22699;-73
2022/08/10 23:20:10;;;;;;;;;;;;;;;;;;;;;
2022/08/10 23:26:56;;;;;;;6.60;2.10;;;;;;;14.68;58.27;99449.81;219078;1282;22866;-73
2022/08/10 23:34:01;;;;;;;3.40;2.60;;;;;;;14.57;58.69;99451.71;220022;1276;24421;-74
2022/08/10 23:46:40;;;;;;;3.50;2.70;;;;;;;14.46;59.36;99440.60;219506;1277;24437;-72
2022/08/10 23:53:30;;;;;;;10.60;3.10;;;;;;;14.41;59.58;99439.55;219656;1279;24431;-73
